Time;durP1;ratioP1;P1;durP2;ratioP2;P2;SDS_P1;SDS_P2;PMS_P1;PMS_P2;Temp;Humidity;BMP_temperature;BMP_pressure;BME280_temperature;BME280_humidity;BME280_pressure;Samples;Min_cycle;Max_cycle;Signal;HPM_P1;HPM_P2
2023/07/20 00:00:08;;;;;;;7.00;6.40;;;18.00;99.90;;;;;;4992146;28;20447;-68
2023/07/20 00:02:35;;;;;;;5.87;5.23;;;18.00;99.90;;;;;;4991932;28;20476;-67
2023/07/20 00:05:02;;;;;;;6.97;5.90;;;17.90;99.90;;;;;;4992029;28;20905;-68
2023/07/20 00:07:29;;;;;;;6.40;5.80;;;17.90;99.90;;;;;;4991906;28;20484;-68
2023/07/20 00:09:57;;;;;;;5.60;4.63;;;17.90;99.90;;;;;;4992126;28;20482;-68
2023/07/20 00:12:23;;;;;;;6.67;5.40;;;17.90;99.90;;;;;;4991900;28;20474;-68
2023/07/20 00:14:53;;;;;;;7.83;5.53;;;17.90;99.90;;;;;;4992093;28;20454;-68
2023/07/20 00:17:20;;;;;;;5.30;4.80;;;17.80;99.90;;;;;;4991427;28;20456;-68
2023/07/20 00:19:47;;;;;;;5.03;4.67;;;17.80;99.90;;;;;;4991823;28;20559;-67
2023/07/20 00:22:14;;;;;;;6.20;5.70;;;17.80;99.90;;;;;;4991447;28;20597;-67
2023/07/20 00:24:41;;;;;;;7.57;5.60;;;17.80;99.90;;;;;;4991624;28;20458;-67
2023/07/20 00:27:08;;;;;;;5.83;5.00;;;17.90;99.90;;;;;;4991762;28;20903;-67
2023/07/20 00:29:35;;;;;;;5.27;4.73;;;17.80;99.90;;;;;;4992198;28;20490;-68
2023/07/20 00:32:04;;;;;;;5.00;4.57;;;17.80;99.90;;;;;;4993966;28;20480;-67
2023/07/20 00:34:32;;;;;;;6.00;4.40;;;17.80;99.90;;;;;;4991024;28;20473;-68
2023/07/20 00:36:58;;;;;;;6.20;4.70;;;17.80;99.90;;;;;;4990617;28;20450;-68
2023/07/20 00:39:25;;;;;;;4.30;3.90;;;17.80;99.90;;;;;;4991818;28;20498;-68
2023/07/20 00:41:52;;;;;;;5.30;4.90;;;17.80;99.90;;;;;;4991538;28;20468;-67
2023/07/20 00:44:19;;;;;;;5.67;4.43;;;17.70;99.90;;;;;;4991310;28;21022;-68
2023/07/20 00:46:46;;;;;;;5.10;4.60;;;17.80;99.90;;;;;;4991316;28;20760;-67
2023/07/20 00:49:14;;;;;;;4.37;4.07;;;17.70;99.90;;;;;;4990956;28;20482;-68
2023/07/20 00:51:42;;;;;;;4.60;4.20;;;17.70;99.90;;;;;;4991276;28;20447;-67
2023/07/20 00:54:09;;;;;;;4.30;4.00;;;17.70;99.90;;;;;;4990333;28;20880;-67
2023/07/20 00:56:36;;;;;;;5.00;4.60;;;17.70;99.90;;;;;;4990807;28;20927;-67
2023/07/20 00:59:04;;;;;;;4.47;3.97;;;17.70;99.90;;;;;;4991474;28;20450;-68
2023/07/20 01:01:30;;;;;;;5.67;4.23;;;17.70;99.90;;;;;;4991420;28;20550;-68
2023/07/20 01:03:57;;;;;;;4.60;4.17;;;17.70;99.90;;;;;;4990995;28;20568;-68
2023/07/20 01:06:34;;;;;;;5.13;4.63;;;17.70;99.90;;;;;;4991070;28;20536;-66
2023/07/20 01:09:14;;;;;;;5.30;4.90;;;17.70;99.90;;;;;;4991216;28;20584;-67
2023/07/20 01:11:52;;;;;;;6.70;4.80;;;17.70;99.90;;;;;;4990787;28;20521;-67
2023/07/20 01:14:19;;;;;;;6.03;5.50;;;17.70;99.90;;;;;;4988793;28;20545;-67
2023/07/20 01:16:47;;;;;;;5.33;4.80;;;17.60;99.90;;;;;;4989706;28;20445;-67
2023/07/20 01:19:14;;;;;;;4.80;4.40;;;17.60;99.90;;;;;;4990885;28;20457;-68
2023/07/20 01:21:51;;;;;;;6.50;4.93;;;17.60;99.90;;;;;;4990908;28;20457;-68
2023/07/20 01:24:42;;;;;;;5.20;4.80;;;17.60;99.90;;;;;;4989305;28;20542;-68
2023/07/20 01:27:43;;;;;;;6.60;5.43;;;17.60;99.90;;;;;;4991193;28;20943;-67
2023/07/20 01:30:19;;;;;;;7.20;4.53;;;17.60;99.90;;;;;;4991330;28;20497;-68
2023/07/20 01:32:48;;;;;;;5.10;4.80;;;17.60;99.90;;;;;;4991554;28;20474;-68
2023/07/20 01:35:18;;;;;;;5.73;5.20;;;17.60;99.90;;;;;;4991193;28;20902;-67
2023/07/20 01:37:47;;;;;;;5.40;4.90;;;17.60;99.90;;;;;;4990976;28;20536;-67
2023/07/20 01:40:15;;;;;;;5.40;4.90;;;17.60;99.90;;;;;;4991523;28;20908;-68
2023/07/20 01:42:46;;;;;;;5.27;4.70;;;17.50;99.90;;;;;;4991581;28;20477;-68
2023/07/20 01:45:13;;;;;;;6.40;5.70;;;17.50;99.90;;;;;;4991434;28;20597;-67
2023/07/20 01:47:40;;;;;;;5.87;5.20;;;17.50;99.90;;;;;;4991106;28;21048;-68
2023/07/20 01:50:09;;;;;;;5.70;4.10;;;17.50;99.90;;;;;;4994727;28;20579;-68
2023/07/20 01:52:36;;;;;;;6.03;5.47;;;17.50;99.90;;;;;;4995180;28;20477;-68
2023/07/20 01:55:04;;;;;;;5.83;5.33;;;17.40;99.90;;;;;;4992610;28;20557;-68
2023/07/20 01:57:31;;;;;;;5.10;4.60;;;17.50;99.90;;;;;;5011031;28;20469;-68
2023/07/20 01:59:58;;;;;;;8.10;5.17;;;17.40;99.90;;;;;;5004403;28;20472;-68
2023/07/20 02:02:27;;;;;;;5.37;4.97;;;17.40;99.90;;;;;;5014247;28;20548;-68
2023/07/20 02:04:54;;;;;;;5.80;5.33;;;17.40;99.90;;;;;;5014559;28;20577;-68
2023/07/20 02:07:23;;;;;;;5.47;5.07;;;17.40;99.90;;;;;;5014338;28;20536;-68
2023/07/20 02:09:49;;;;;;;5.37;4.97;;;17.40;99.90;;;;;;5014367;28;20584;-68
2023/07/20 02:12:16;;;;;;;4.97;4.57;;;17.40;99.90;;;;;;5014224;28;20559;-68
2023/07/20 02:14:43;;;;;;;5.47;4.93;;;17.30;99.90;;;;;;5008771;28;20541;-68
2023/07/20 02:17:10;;;;;;;6.47;4.87;;;17.40;99.90;;;;;;5013863;28;20458;-67
2023/07/20 02:19:38;;;;;;;8.87;5.63;;;17.30;99.90;;;;;;5014171;28;20461;-68
2023/07/20 02:22:05;;;;;;;6.90;5.27;;;17.30;99.90;;;;;;5014211;28;20572;-68
2023/07/20 02:24:33;;;;;;;5.27;4.77;;;17.30;99.90;;;;;;5014358;28;21025;-66
2023/07/20 02:27:00;;;;;;;5.07;4.67;;;17.30;99.90;;;;;;5014020;28;20536;-68
2023/07/20 02:29:27;;;;;;;5.80;5.30;;;17.30;99.90;;;;;;5014141;28;20940;-68
2023/07/20 02:31:54;;;;;;;4.70;4.40;;;17.20;99.90;;;;;;5013818;28;20557;-67
2023/07/20 02:34:21;;;;;;;9.43;4.60;;;17.20;99.90;;;;;;5013663;28;21024;-68
2023/07/20 02:36:48;;;;;;;5.13;4.73;;;17.10;99.90;;;;;;5013601;28;20535;-67
2023/07/20 02:39:14;;;;;;;6.93;5.03;;;17.10;99.90;;;;;;5013850;28;20447;-67
2023/07/20 02:41:43;;;;;;;5.67;5.17;;;17.00;99.90;;;;;;5013536;28;20544;-67
2023/07/20 02:44:10;;;;;;;5.13;4.63;;;17.00;99.90;;;;;;5013855;28;20880;-68
2023/07/20 02:46:36;;;;;;;4.80;4.40;;;16.90;99.90;;;;;;5013419;28;21017;-66
2023/07/20 02:49:04;;;;;;;11.50;4.53;;;16.90;99.90;;;;;;5013507;28;20539;-67
2023/07/20 02:51:31;;;;;;;4.97;4.57;;;16.90;99.90;;;;;;5013608;28;20457;-67
2023/07/20 02:53:57;;;;;;;5.33;4.93;;;16.80;99.90;;;;;;5013605;28;20555;-67
2023/07/20 02:56:24;;;;;;;5.97;4.67;;;16.70;99.90;;;;;;5013010;28;20544;-67
2023/07/20 02:58:53;;;;;;;6.00;4.90;;;16.70;99.90;;;;;;5013641;28;20542;-67
2023/07/20 03:01:20;;;;;;;5.53;5.03;;;16.70;99.90;;;;;;5012385;28;20867;-67
2023/07/20 03:03:47;;;;;;;8.90;4.67;;;16.60;99.90;;;;;;5006286;28;20925;-67
2023/07/20 03:06:14;;;;;;;7.93;5.70;;;16.50;99.90;;;;;;5011833;28;20453;-67
2023/07/20 03:08:47;;;;;;;10.17;5.70;;;16.50;99.90;;;;;;5013274;28;20455;-67
2023/07/20 03:11:14;;;;;;;5.53;5.03;;;16.40;99.90;;;;;;5013244;28;20492;-67
2023/07/20 03:13:41;;;;;;;6.70;4.50;;;16.40;99.90;;;;;;5013008;28;20563;-68
2023/07/20 03:16:11;;;;;;;4.43;3.80;;;16.40;99.90;;;;;;5013043;28;20454;-67
2023/07/20 03:18:38;;;;;;;6.67;4.53;;;16.30;99.90;;;;;;5013297;28;20842;-67
2023/07/20 03:21:05;;;;;;;10.73;5.07;;;16.30;99.90;;;;;;5012998;28;20456;-67
2023/07/20 03:23:32;;;;;;;7.23;5.33;;;16.20;99.90;;;;;;5013022;28;20529;-67
2023/07/20 03:25:59;;;;;;;5.27;4.20;;;16.20;99.90;;;;;;5012696;28;20535;-67
2023/07/20 03:28:26;;;;;;;5.80;4.30;;;16.10;99.90;;;;;;5013019;28;20541;-67
2023/07/20 03:30:55;;;;;;;6.83;4.80;;;16.10;99.90;;;;;;5012915;28;20488;-67
2023/07/20 03:33:23;;;;;;;9.63;5.47;;;16.00;99.90;;;;;;5012814;28;20891;-67
2023/07/20 03:35:50;;;;;;;6.20;3.90;;;16.00;99.90;;;;;;5012512;28;20551;-66
2023/07/20 03:38:17;;;;;;;6.90;5.00;;;15.90;99.90;;;;;;5012767;28;20545;-67
2023/07/20 03:40:51;;;;;;;6.07;5.30;;;15.80;99.90;;;;;;5012702;28;20538;-67
2023/07/20 03:43:18;;;;;;;9.30;6.03;;;15.80;99.90;;;;;;5012641;28;20473;-68
2023/07/20 03:45:45;;;;;;;8.43;5.23;;;15.80;99.90;;;;;;5012786;28;20896;-66
2023/07/20 03:48:12;;;;;;;13.70;6.40;;;15.70;99.90;;;;;;5012190;28;20511;-67
2023/07/20 03:50:40;;;;;;;13.90;5.57;;;15.70;99.90;;;;;;5012669;28;20578;-67
2023/07/20 03:53:07;;;;;;;7.60;4.50;;;15.70;99.90;;;;;;5012657;28;20585;-67
2023/07/20 03:55:34;;;;;;;6.30;4.50;;;15.60;99.90;;;;;;5012520;28;20895;-67
2023/07/20 03:58:01;;;;;;;8.50;5.13;;;15.60;99.90;;;;;;5012120;28;20906;-67
2023/07/20 04:00:28;;;;;;;4.60;4.20;;;15.50;99.90;;;;;;5012242;28;20452;-67
2023/07/20 04:02:55;;;;;;;7.20;4.83;;;15.50;99.90;;;;;;5012121;28;20564;-67
2023/07/20 04:05:22;;;;;;;9.50;5.23;;;15.50;99.90;;;;;;5012399;28;20516;-67
2023/07/20 04:07:51;;;;;;;4.80;4.40;;;15.50;99.90;;;;;;5012014;28;20547;-67
2023/07/20 04:10:18;;;;;;;6.63;4.47;;;15.40;99.90;;;;;;5012283;28;20488;-67
2023/07/20 04:12:46;;;;;;;8.20;4.60;;;15.40;99.90;;;;;;5011898;28;20474;-67
2023/07/20 04:15:14;;;;;;;4.70;4.30;;;15.40;99.90;;;;;;5011923;28;20455;-67
2023/07/20 04:17:41;;;;;;;8.57;6.00;;;15.40;99.90;;;;;;5011627;28;20975;-66
2023/07/20 04:20:09;;;;;;;5.20;4.70;;;15.40;99.90;;;;;;5011927;28;20933;-67
2023/07/20 04:22:36;;;;;;;8.63;4.50;;;15.30;99.90;;;;;;5011723;28;20519;-67
2023/07/20 04:25:05;;;;;;;4.50;4.10;;;15.30;99.90;;;;;;5011934;28;20477;-66
2023/07/20 04:27:32;;;;;;;5.90;5.40;;;15.30;99.90;;;;;;5011510;28;20510;-67
2023/07/20 04:30:00;;;;;;;5.63;4.70;;;15.30;99.90;;;;;;5011636;28;20611;-66
2023/07/20 04:32:27;;;;;;;14.00;4.83;;;15.30;99.90;;;;;;5011726;28;20488;-67
2023/07/20 04:34:54;;;;;;;6.03;4.40;;;15.30;99.90;;;;;;5011587;28;20465;-67
2023/07/20 04:37:21;;;;;;;4.87;4.23;;;15.30;99.90;;;;;;5011596;28;20537;-67
2023/07/20 04:39:48;;;;;;;7.33;4.20;;;15.30;99.90;;;;;;5011546;28;20535;-67
2023/07/20 04:42:16;;;;;;;4.50;4.20;;;15.30;99.90;;;;;;5011462;28;20553;-67
2023/07/20 04:44:43;;;;;;;6.40;4.20;;;15.30;99.90;;;;;;5011674;28;20537;-67
2023/07/20 04:47:10;;;;;;;4.23;3.93;;;15.30;99.90;;;;;;5011341;28;20483;-67
2023/07/20 04:49:37;;;;;;;4.80;4.50;;;15.30;99.90;;;;;;5011582;28;20488;-67
2023/07/20 04:52:04;;;;;;;5.90;5.40;;;15.40;99.90;;;;;;5011275;28;20529;-67
2023/07/20 04:54:31;;;;;;;4.63;4.20;;;15.40;99.90;;;;;;5011139;28;20534;-66
2023/07/20 04:56:58;;;;;;;8.00;4.60;;;15.40;99.90;;;;;;5010966;28;20544;-67
2023/07/20 04:59:26;;;;;;;4.83;4.53;;;15.50;99.90;;;;;;5011306;28;20543;-67
2023/07/20 05:01:53;;;;;;;5.10;4.70;;;15.50;99.90;;;;;;5010894;28;20549;-67
2023/07/20 05:04:20;;;;;;;7.83;4.53;;;15.50;99.90;;;;;;5011194;28;20460;-67
2023/07/20 05:06:47;;;;;;;5.47;4.40;;;15.50;99.90;;;;;;5010782;28;20882;-67
2023/07/20 05:09:14;;;;;;;5.60;5.10;;;15.60;99.90;;;;;;5011121;28;20538;-67
2023/07/20 05:11:40;;;;;;;4.80;4.40;;;15.60;99.90;;;;;;5010976;28;20586;-67
2023/07/20 05:14:07;;;;;;;6.47;4.90;;;15.70;99.90;;;;;;5011300;28;20536;-67
2023/07/20 05:16:35;;;;;;;6.50;5.00;;;15.80;99.90;;;;;;5010903;28;20534;-66
2023/07/20 05:19:02;;;;;;;6.00;5.37;;;15.80;99.90;;;;;;5011237;28;20903;-66
2023/07/20 05:21:29;;;;;;;5.57;4.90;;;15.90;99.90;;;;;;5010747;28;20487;-67
2023/07/20 05:23:56;;;;;;;4.27;3.80;;;16.00;99.90;;;;;;5010614;28;20557;-66
2023/07/20 05:26:23;;;;;;;5.80;4.90;;;16.00;99.90;;;;;;5010923;28;20534;-66
2023/07/20 05:28:50;;;;;;;6.13;5.57;;;16.10;99.90;;;;;;5011041;28;21022;-67
2023/07/20 05:31:17;;;;;;;5.07;4.77;;;16.20;99.90;;;;;;5011003;28;21035;-67
2023/07/20 05:33:45;;;;;;;5.57;5.00;;;16.30;99.90;;;;;;5010121;28;20480;-67
2023/07/20 05:36:12;;;;;;;4.83;4.10;;;16.40;99.90;;;;;;5010438;28;20538;-67
2023/07/20 05:38:39;;;;;;;6.03;5.53;;;16.50;99.90;;;;;;5010912;28;20539;-67
2023/07/20 05:41:10;;;;;;;5.70;5.20;;;16.60;99.90;;;;;;5010783;28;20544;-67
2023/07/20 05:43:37;;;;;;;8.57;4.60;;;16.80;99.90;;;;;;5010654;28;20852;-67
2023/07/20 05:46:05;;;;;;;5.23;4.83;;;16.90;99.90;;;;;;5010310;28;20484;-67
2023/07/20 05:48:32;;;;;;;6.43;4.70;;;17.00;99.90;;;;;;5010945;28;20837;-66
2023/07/20 05:51:00;;;;;;;5.63;5.13;;;17.20;99.90;;;;;;5010561;28;20483;-67
2023/07/20 05:53:27;;;;;;;7.40;5.20;;;17.30;99.90;;;;;;5010650;28;20555;-67
2023/07/20 05:55:54;;;;;;;5.37;4.97;;;17.40;99.90;;;;;;5010468;28;20534;-68
2023/07/20 05:58:21;;;;;;;4.73;4.40;;;17.60;99.90;;;;;;5010674;28;20454;-68
2023/07/20 06:00:49;;;;;;;5.30;4.80;;;17.70;99.90;;;;;;5011107;28;20874;-67
2023/07/20 06:03:17;;;;;;;5.07;4.57;;;17.90;99.90;;;;;;5010858;28;20476;-67
2023/07/20 06:05:44;;;;;;;3.90;3.70;;;18.00;99.90;;;;;;5010905;28;20483;-68
2023/07/20 06:08:12;;;;;;;4.00;3.60;;;18.10;99.90;;;;;;5010671;28;20544;-68
2023/07/20 06:10:39;;;;;;;6.50;4.70;;;18.30;99.90;;;;;;5010615;28;20577;-68
2023/07/20 06:13:06;;;;;;;4.60;4.20;;;18.50;99.90;;;;;;5010663;28;20473;-68
2023/07/20 06:15:35;;;;;;;4.80;4.30;;;18.60;99.90;;;;;;5010446;28;20532;-68
2023/07/20 06:18:03;;;;;;;7.03;5.47;;;18.70;99.90;;;;;;5010174;28;20458;-68
2023/07/20 06:20:30;;;;;;;5.97;4.33;;;18.80;99.90;;;;;;5010444;28;20512;-67
2023/07/20 06:22:57;;;;;;;5.50;5.07;;;18.90;99.90;;;;;;5010297;28;20567;-68
2023/07/20 06:25:25;;;;;;;4.87;4.10;;;19.00;99.90;;;;;;5010674;28;20536;-67
2023/07/20 06:27:53;;;;;;;7.67;4.57;;;19.20;99.90;;;;;;5010394;28;20645;-67
2023/07/20 06:30:20;;;;;;;6.27;4.20;;;19.30;99.90;;;;;;5010416;28;20509;-67
2023/07/20 06:32:47;;;;;;;4.27;3.97;;;19.40;99.90;;;;;;5010418;28;20564;-67
2023/07/20 06:35:15;;;;;;;4.30;4.00;;;19.50;99.90;;;;;;5010382;28;20900;-68
2023/07/20 06:37:42;;;;;;;7.93;3.87;;;19.70;99.90;;;;;;5013364;28;20481;-67
2023/07/20 06:40:10;;;;;;;4.40;3.93;;;19.70;99.90;;;;;;5013761;28;20445;-67
2023/07/20 06:42:38;;;;;;;5.23;4.23;;;19.70;99.90;;;;;;5013916;28;20509;-68
2023/07/20 06:45:06;;;;;;;5.80;3.43;;;19.80;99.90;;;;;;5013858;28;20537;-68
2023/07/20 06:47:33;;;;;;;4.20;3.90;;;19.80;99.90;;;;;;5013307;28;20490;-68
2023/07/20 06:50:00;;;;;;;5.43;3.63;;;19.90;99.90;;;;;;5013802;28;20971;-67
2023/07/20 06:52:26;;;;;;;3.90;3.60;;;20.00;99.90;;;;;;5013154;28;20571;-68
2023/07/20 06:54:53;;;;;;;4.90;4.40;;;20.10;99.90;;;;;;5013682;28;20529;-68
2023/07/20 06:57:20;;;;;;;5.00;4.10;;;20.20;99.90;;;;;;5013313;28;21095;-69
2023/07/20 06:59:48;;;;;;;7.00;4.47;;;20.30;99.90;;;;;;5013587;28;21015;-68
2023/07/20 07:02:15;;;;;;;4.60;3.80;;;20.40;99.90;;;;;;5013282;28;20498;-69
2023/07/20 07:04:43;;;;;;;7.60;5.40;;;20.40;99.90;;;;;;5013354;28;20539;-68
2023/07/20 07:07:10;;;;;;;6.40;4.43;;;20.50;99.90;;;;;;5012965;28;20530;-69
2023/07/20 07:09:36;;;;;;;8.50;3.70;;;20.60;99.90;;;;;;5013302;28;20452;-69
2023/07/20 07:12:04;;;;;;;4.30;3.77;;;20.70;99.90;;;;;;5012987;28;20578;-68
2023/07/20 07:14:31;;;;;;;10.50;4.17;;;20.80;99.90;;;;;;5013229;28;20531;-68
2023/07/20 07:16:59;;;;;;;5.67;3.90;;;20.80;99.90;;;;;;5012915;28;20535;-69
2023/07/20 07:19:26;;;;;;;7.20;3.87;;;20.90;99.90;;;;;;5012993;28;20538;-69
2023/07/20 07:21:53;;;;;;;5.00;4.30;;;21.00;99.90;;;;;;5001033;28;20547;-69
2023/07/20 07:24:20;;;;;;;7.80;3.60;;;21.00;99.90;;;;;;4992611;28;20491;-69
2023/07/20 07:26:46;;;;;;;3.50;2.90;;;21.10;99.90;;;;;;4996595;28;20529;-68
2023/07/20 07:29:13;;;;;;;5.73;3.37;;;21.00;99.90;;;;;;5003073;28;20492;-68
2023/07/20 07:31:40;;;;;;;3.63;3.33;;;21.10;99.90;;;;;;5000971;28;21049;-68
2023/07/20 07:34:08;;;;;;;4.10;3.70;;;21.20;99.90;;;;;;5000269;28;21128;-69
2023/07/20 07:36:36;;;;;;;3.60;3.30;;;21.30;99.90;;;;;;5006640;28;20535;-69
2023/07/20 07:39:03;;;;;;;4.47;4.17;;;21.50;99.90;;;;;;5007465;28;20561;-69
2023/07/20 07:41:33;;;;;;;5.50;3.33;;;21.60;99.90;;;;;;5005968;28;20480;-69
2023/07/20 07:44:00;;;;;;;5.80;3.67;;;21.70;99.90;;;;;;4997030;28;20500;-69
2023/07/20 07:46:27;;;;;;;4.87;3.20;;;21.70;99.90;;;;;;4990165;28;20548;-68
2023/07/20 07:48:54;;;;;;;4.10;3.07;;;21.80;99.90;;;;;;4992991;28;20838;-69
2023/07/20 07:51:22;;;;;;;4.27;3.80;;;21.90;99.90;;;;;;4998485;28;21176;-68
2023/07/20 07:53:50;;;;;;;3.50;2.83;;;22.00;99.90;;;;;;4995157;28;20512;-69
2023/07/20 07:56:17;;;;;;;3.73;3.43;;;22.00;99.90;;;;;;4995025;28;20961;-69
2023/07/20 07:58:44;;;;;;;5.10;3.30;;;22.00;99.90;;;;;;5001232;28;20457;-68
2023/07/20 08:01:11;;;;;;;4.67;3.80;;;22.20;99.90;;;;;;4993600;28;20536;-68
2023/07/20 08:03:38;;;;;;;5.07;3.13;;;22.30;99.90;;;;;;5001032;28;20560;-68
2023/07/20 08:06:05;;;;;;;5.43;2.80;;;22.50;99.90;;;;;;4991310;28;20543;-68
2023/07/20 08:08:33;;;;;;;4.70;3.00;;;22.60;99.90;;;;;;4999944;28;20558;-68
2023/07/20 08:11:00;;;;;;;4.00;3.00;;;22.60;99.90;;;;;;5003444;28;20486;-68
2023/07/20 08:13:27;;;;;;;7.50;3.17;;;22.40;99.40;;;;;;5008394;28;20962;-68
2023/07/20 08:15:54;;;;;;;2.57;2.37;;;22.10;98.60;;;;;;4997355;28;21023;-68
2023/07/20 08:18:21;;;;;;;10.70;4.57;;;21.90;99.90;;;;;;5004688;28;20886;-68
2023/07/20 08:20:49;;;;;;;3.57;3.10;;;21.70;98.90;;;;;;4999511;28;20550;-68
2023/07/20 08:23:16;;;;;;;6.70;3.50;;;21.60;98.00;;;;;;4996601;28;20552;-68
2023/07/20 08:25:44;;;;;;;3.30;2.80;;;21.80;98.80;;;;;;5008898;28;20894;-68
2023/07/20 08:28:12;;;;;;;3.83;2.93;;;21.90;99.30;;;;;;5001459;28;20452;-67
2023/07/20 08:30:43;;;;;;;4.93;3.67;;;22.10;98.50;;;;;;5004642;28;20552;-67
2023/07/20 08:33:10;;;;;;;3.43;3.13;;;22.30;98.70;;;;;;5007206;28;20516;-68
2023/07/20 08:35:38;;;;;;;3.17;2.80;;;22.40;99.60;;;;;;4992384;28;20459;-68
2023/07/20 08:38:05;;;;;;;2.77;2.50;;;22.40;99.20;;;;;;4995239;28;20451;-67
2023/07/20 08:40:32;;;;;;;4.83;3.43;;;22.40;99.50;;;;;;4996191;28;20451;-68
2023/07/20 08:43:01;;;;;;;3.20;2.90;;;22.50;98.60;;;;;;5003088;28;20556;-68
2023/07/20 08:45:30;;;;;;;3.03;2.50;;;22.50;97.30;;;;;;4996758;28;21819;-67
2023/07/20 08:47:59;;;;;;;3.90;2.70;;;22.60;98.30;;;;;;5010017;28;20450;-67
2023/07/20 08:50:26;;;;;;;5.07;3.00;;;22.80;97.10;;;;;;5004093;28;20525;-68
2023/07/20 08:52:54;;;;;;;3.33;2.73;;;22.90;96.20;;;;;;4999348;28;20494;-67
2023/07/20 08:55:23;;;;;;;4.40;3.70;;;23.10;96.10;;;;;;5010801;28;20816;-67
2023/07/20 08:57:51;;;;;;;3.90;3.23;;;23.20;95.20;;;;;;5008151;28;20524;-68
2023/07/20 09:00:21;;;;;;;5.90;2.67;;;23.10;95.40;;;;;;5010078;28;20832;-68
2023/07/20 09:02:51;;;;;;;3.90;3.60;;;23.00;96.50;;;;;;5007358;28;20467;-68
2023/07/20 09:05:18;;;;;;;4.13;3.20;;;23.00;95.80;;;;;;5010643;28;20450;-69
2023/07/20 09:07:45;;;;;;;3.40;2.70;;;23.10;94.40;;;;;;5009969;28;20954;-67
2023/07/20 09:10:12;;;;;;;2.47;2.37;;;23.20;95.80;;;;;;5010670;28;20894;-67
2023/07/20 09:12:41;;;;;;;2.50;2.20;;;23.40;94.20;;;;;;5010398;28;20580;-66
2023/07/20 09:15:10;;;;;;;3.43;2.53;;;23.50;94.10;;;;;;5010473;28;20969;-67
2023/07/20 09:17:38;;;;;;;2.20;2.00;;;23.50;93.90;;;;;;5009432;28;20536;-68
2023/07/20 09:20:10;;;;;;;3.10;2.60;;;23.40;92.70;;;;;;5003075;28;20960;-68
2023/07/20 09:22:39;;;;;;;3.40;2.03;;;23.40;92.20;;;;;;5010040;28;20539;-67
2023/07/20 09:25:07;;;;;;;2.93;2.73;;;23.50;91.90;;;;;;5010312;28;20482;-69
2023/07/20 09:27:38;;;;;;;2.90;2.60;;;23.70;92.60;;;;;;5009678;28;20455;-68
2023/07/20 09:30:07;;;;;;;1.97;1.83;;;23.80;93.10;;;;;;5010454;28;20571;-68
2023/07/20 09:32:42;;;;;;;2.57;2.43;;;24.00;93.90;;;;;;5010167;28;20540;-67
2023/07/20 09:35:15;;;;;;;3.30;3.10;;;24.20;92.90;;;;;;5007868;28;20449;-66
2023/07/20 09:37:48;;;;;;;2.57;2.37;;;24.20;91.60;;;;;;4990391;28;20459;-68
2023/07/20 09:40:19;;;;;;;2.80;2.60;;;24.30;93.20;;;;;;4988208;28;20464;-68
2023/07/20 09:42:46;;;;;;;2.03;1.83;;;24.40;92.50;;;;;;5009105;28;20543;-67
2023/07/20 09:45:13;;;;;;;2.13;2.03;;;24.50;91.90;;;;;;5004064;28;20546;-68
2023/07/20 09:47:42;;;;;;;2.07;1.93;;;24.50;91.20;;;;;;4998338;28;20547;-67
2023/07/20 09:50:12;;;;;;;1.97;1.87;;;24.60;91.60;;;;;;4995266;28;20461;-68
2023/07/20 09:52:40;;;;;;;1.83;1.73;;;24.80;91.30;;;;;;4995547;28;20573;-67
2023/07/20 09:55:09;;;;;;;2.00;1.90;;;24.70;89.90;;;;;;5001275;28;20457;-68
2023/07/20 09:57:36;;;;;;;3.17;2.33;;;24.50;88.30;;;;;;5004886;28;20444;-67
2023/07/20 10:00:10;;;;;;;2.40;2.20;;;24.30;87.60;;;;;;5003024;28;20465;-67
2023/07/20 10:02:44;;;;;;;2.33;2.13;;;24.00;88.80;;;;;;4998556;28;20501;-68
2023/07/20 10:05:13;;;;;;;2.30;1.93;;;23.80;88.80;;;;;;5007760;28;20450;-67
2023/07/20 10:07:46;;;;;;;3.53;2.40;;;23.70;89.10;;;;;;4993720;28;20456;-68
2023/07/20 10:10:16;;;;;;;2.60;1.83;;;23.70;86.20;;;;;;5003560;28;20447;-67
2023/07/20 10:12:44;;;;;;;2.00;1.80;;;23.80;86.00;;;;;;4999969;28;20573;-67
2023/07/20 10:15:14;;;;;;;1.43;1.33;;;23.80;84.20;;;;;;5002924;28;20547;-67
2023/07/20 10:17:50;;;;;;;2.50;2.30;;;23.90;85.60;;;;;;5005265;28;21053;-67
2023/07/20 10:20:20;;;;;;;2.60;2.33;;;23.90;88.20;;;;;;5009102;28;20536;-67
2023/07/20 10:22:49;;;;;;;2.73;2.63;;;24.00;89.10;;;;;;5011692;28;20487;-67
2023/07/20 10:25:19;;;;;;;3.87;2.37;;;24.10;88.70;;;;;;5006307;28;20564;-68
2023/07/20 10:27:47;;;;;;;2.70;2.30;;;24.20;87.10;;;;;;5000325;28;20501;-68
2023/07/20 10:30:15;;;;;;;2.27;2.10;;;24.20;87.30;;;;;;4995774;28;20904;-67
2023/07/20 10:32:44;;;;;;;2.63;2.20;;;24.10;86.40;;;;;;5004055;28;20565;-67
2023/07/20 10:35:14;;;;;;;7.90;2.90;;;24.00;88.80;;;;;;5007224;28;20554;-67
2023/07/20 10:37:52;;;;;;;2.40;1.90;;;23.80;88.30;;;;;;5004110;28;20469;-67
2023/07/20 10:40:27;;;;;;;2.50;2.30;;;23.70;85.60;;;;;;5000168;28;20537;-67
2023/07/20 10:42:58;;;;;;;4.40;2.03;;;23.70;87.10;;;;;;4996257;28;20576;-68
2023/07/20 10:45:41;;;;;;;2.60;1.90;;;23.70;84.70;;;;;;4997496;28;20490;-67
2023/07/20 10:48:15;;;;;;;2.90;2.70;;;23.80;85.00;;;;;;4993045;28;20478;-68
2023/07/20 10:50:42;;;;;;;3.70;2.27;;;23.90;83.70;;;;;;5009654;28;20456;-68
2023/07/20 10:53:17;;;;;;;2.90;2.70;;;23.90;85.40;;;;;;5001641;28;20496;-68
2023/07/20 10:55:46;;;;;;;2.10;1.90;;;24.00;83.90;;;;;;5002572;28;20538;-67
2023/07/20 10:58:14;;;;;;;3.10;2.23;;;24.00;80.60;;;;;;5004988;28;20468;-67
2023/07/20 11:01:00;;;;;;;1.80;1.70;;;24.00;81.70;;;;;;5009579;28;20912;-68
2023/07/20 11:03:33;;;;;;;2.10;2.00;;;24.20;84.80;;;;;;5000458;28;20479;-67
2023/07/20 11:06:21;;;;;;;2.10;2.00;;;24.30;85.70;;;;;;4989575;28;20479;-67
2023/07/20 11:08:48;;;;;;;4.37;4.07;;;24.40;83.80;;;;;;5005501;28;20900;-67
2023/07/20 11:11:34;;;;;;;1.90;1.80;;;24.60;84.30;;;;;;5006329;28;20450;-67
2023/07/20 11:14:02;;;;;;;3.37;2.30;;;24.70;79.10;;;;;;4982032;28;21027;-67
2023/07/20 11:16:38;;;;;;;3.70;2.20;;;24.70;79.80;;;;;;5003298;28;20536;-68
2023/07/20 11:19:07;;;;;;;2.13;1.93;;;24.80;76.30;;;;;;5003271;28;20530;-68
2023/07/20 11:21:38;;;;;;;3.60;2.10;;;24.70;74.80;;;;;;5004848;28;20567;-67
2023/07/20 11:24:07;;;;;;;2.60;2.33;;;24.80;77.10;;;;;;5005548;28;20455;-68
2023/07/20 11:26:44;;;;;;;3.70;2.03;;;25.00;79.90;;;;;;4995460;28;20499;-67
2023/07/20 11:29:11;;;;;;;2.10;1.90;;;25.10;78.30;;;;;;4994520;28;20540;-68
2023/07/20 11:31:39;;;;;;;3.33;1.97;;;25.30;79.60;;;;;;5003971;28;20500;-67
2023/07/20 11:34:11;;;;;;;2.40;2.10;;;25.50;75.70;;;;;;5002495;28;20514;-68
2023/07/20 11:36:38;;;;;;;1.77;1.67;;;25.60;74.20;;;;;;4998006;28;20531;-68
2023/07/20 11:39:07;;;;;;;1.73;1.63;;;25.50;76.10;;;;;;5001318;28;20456;-68
2023/07/20 11:41:34;;;;;;;2.80;1.90;;;25.30;73.30;;;;;;5004266;28;20827;-68
2023/07/20 11:44:01;;;;;;;1.87;1.77;;;25.20;73.50;;;;;;4999948;28;20553;-68
2023/07/20 11:46:29;;;;;;;3.13;1.90;;;24.90;74.80;;;;;;5010168;28;20455;-67
2023/07/20 11:49:00;;;;;;;1.80;1.70;;;24.80;76.90;;;;;;5002892;28;20454;-68
2023/07/20 11:51:30;;;;;;;3.63;2.00;;;24.70;73.30;;;;;;5003087;28;20821;-67
2023/07/20 11:53:57;;;;;;;1.73;1.63;;;24.70;76.80;;;;;;5000832;28;20929;-66
2023/07/20 11:56:25;;;;;;;2.20;2.00;;;24.80;76.20;;;;;;5006468;28;20539;-68
2023/07/20 11:58:55;;;;;;;2.63;2.10;;;25.00;73.90;;;;;;4993350;28;20452;-68
2023/07/20 12:01:22;;;;;;;1.80;1.67;;;25.10;74.50;;;;;;5006129;28;20485;-66
2023/07/20 12:03:50;;;;;;;2.23;2.03;;;25.10;72.20;;;;;;4988763;28;20654;-68
2023/07/20 12:06:17;;;;;;;1.70;1.50;;;25.10;75.40;;;;;;4994688;28;20471;-68
2023/07/20 12:08:45;;;;;;;3.53;1.50;;;25.10;75.10;;;;;;4995504;28;20547;-67
2023/07/20 12:11:12;;;;;;;1.73;1.63;;;25.20;74.40;;;;;;5011320;28;20449;-67
2023/07/20 12:13:42;;;;;;;2.10;2.00;;;25.40;71.30;;;;;;4994093;28;20914;-67
2023/07/20 12:16:14;;;;;;;2.50;1.80;;;25.50;72.40;;;;;;4991459;28;20464;-67
2023/07/20 12:18:41;;;;;;;1.47;1.37;;;25.70;71.70;;;;;;4991486;28;20453;-67
2023/07/20 12:21:08;;;;;;;1.77;1.67;;;25.60;70.10;;;;;;4989633;28;20550;-68
2023/07/20 12:23:40;;;;;;;2.00;1.90;;;25.50;69.00;;;;;;5004121;28;21082;-68
2023/07/20 12:26:11;;;;;;;2.10;1.90;;;25.40;69.40;;;;;;5010820;28;20533;-68
2023/07/20 12:28:42;;;;;;;2.30;2.10;;;25.20;69.30;;;;;;4994936;28;20484;-68
2023/07/20 12:31:09;;;;;;;1.90;1.60;;;25.30;72.10;;;;;;4991275;28;20544;-67
2023/07/20 12:33:36;;;;;;;2.30;2.07;;;25.40;73.70;;;;;;4990865;28;20573;-67
2023/07/20 12:36:03;;;;;;;1.47;1.33;;;25.70;70.00;;;;;;4991203;28;20561;-68
2023/07/20 12:38:30;;;;;;;1.50;1.40;;;26.00;73.50;;;;;;4991254;28;20887;-68
2023/07/20 12:40:58;;;;;;;2.50;1.70;;;26.40;72.00;;;;;;4991370;28;20455;-68
2023/07/20 12:43:26;;;;;;;1.97;1.77;;;26.50;71.10;;;;;;4989087;28;20821;-68
2023/07/20 12:45:53;;;;;;;2.00;1.73;;;26.60;66.40;;;;;;5010370;28;20449;-69
2023/07/20 12:48:20;;;;;;;2.03;1.90;;;26.70;67.00;;;;;;4991594;28;20558;-67
2023/07/20 12:50:47;;;;;;;1.70;1.60;;;26.90;68.20;;;;;;5008761;28;20537;-68